Global Triumph — V7DU5 — position and weather

sailwx.info

Track history (hours):
 
Tides and Currents Weather Stations Pressure Air Temp Water Temp Dewpoint Dewpoint Depression Visibility Wind Speed Wind Dir Waves Ship Positions

Global Triumph

Last reported at 2017-May-03 19:14 UTC. Time now 2017-May-24 17:40 UTC.
Position N 01°59' E 102°13'.
Warning: this ship's position is 20 days out of date.

Length 225 m; draft 6.9 m.

Type: Cargo ship. MMSI: 538001709.

Date/timePositionNaut miles runAvg speedWind from/ knotsBaromVisibWave heightAir tempDewpointWater temp
2017-May-03 19:14N 01°59' E 102°13'515.5
2017-May-03 18:55N 01°56' E 102°17'715.3
2017-May-03 18:27N 01°53' E 102°24'715.1
2017-May-03 18:00N 01°50' E 102°30'815.4
2017-May-03 17:30N 01°47' E 102°37'5916.2
2017-May-03 13:50N 01°15' E 103°27'617.1
2017-May-03 13:30N 01°13' E 103°32'816.9
2017-May-03 13:00N 01°10' E 103°40'714.9
2017-May-03 12:30N 01°10' E 103°48'815.5
2017-May-03 12:01N 01°14' E 103°54'4 7.4
2017-May-03 11:30N 01°17' E 103°56'0 0.3
2017-May-03 11:00N 01°17' E 103°56'0 0.0
2017-May-03 10:12N 01°17' E 103°56'0 0.0
2017-May-03 09:54N 01°17' E 103°56'0 0.0
2017-May-03 09:09N 01°17' E 103°56'0 0.0
2017-May-03 08:57N 01°17' E 103°56'0 0.0
2017-May-03 08:24N 01°17' E 103°56'0 0.0
2017-May-03 07:54N 01°17' E 103°56'0 0.0
2017-May-03 07:30N 01°17' E 103°56'0 0.0
2017-May-03 06:48N 01°17' E 103°56'0 0.0
2017-May-03 06:30N 01°17' E 103°56'0 0.0
2017-May-03 05:57N 01°17' E 103°56'0 0.0
2017-May-03 05:27N 01°17' E 103°56'0 0.1
2017-May-03 05:00N 01°17' E 103°56'0 0.0
2017-May-03 04:09N 01°17' E 103°56'0 0.0
2017-May-03 03:57N 01°17' E 103°56'0 0.1
2017-May-03 03:30N 01°17' E 103°56'0 0.0
2017-May-03 02:48N 01°17' E 103°56'0 0.2
2017-May-03 02:27N 01°17' E 103°56'0 0.0
2017-May-03 01:57N 01°17' E 103°56'0 0.0
2017-May-03 01:30N 01°17' E 103°56'0 0.0
2017-May-03 00:57N 01°17' E 103°56'0 0.0
2017-May-03 00:30N 01°17' E 103°56'0 0.0
2017-May-03 00:00N 01°17' E 103°56'0 0.0
2017-May-02 23:18N 01°17' E 103°56'0 0.6
2017-May-02 23:00N 01°17' E 103°56'2 4.4
2017-May-02 22:30N 01°16' E 103°57'3 6.7
2017-May-02 22:00N 01°16' E 104°01'  
2017-Apr-25 14:52N 31°20' E 122°34'1 2.2
2017-Apr-25 14:25N 31°19' E 122°35'1 1.3
2017-Apr-25 13:30N 31°20' E 122°36'510.4
2017-Apr-25 13:00N 31°25' E 122°38'713.4
2017-Apr-25 12:30N 31°31' E 122°41'814.5
2017-Apr-25 11:59N 31°38' E 122°44'1015.2
2017-Apr-25 11:21N 31°47' E 122°49'616.3
2017-Apr-25 11:00N 31°51' E 122°54'816.3
2017-Apr-25 10:30N 31°56' E 123°01'916.8
2017-Apr-25 10:00N 32°02' E 123°09'816.7
2017-Apr-25 09:30N 32°07' E 123°16'  
Track history (hours):
 
Tides and Currents Weather Stations Pressure Air Temp Water Temp Dewpoint Dewpoint Depression Visibility Wind Speed Wind Dir Waves Ship Positions

Global Triumph

Last reported at 2017-May-03 19:14 UTC. Time now 2017-May-24 17:40 UTC.
Position N 01°59' E 102°13'.
Warning: this ship's position is 20 days out of date.

Length 225 m; draft 6.9 m.

Type: Cargo ship. MMSI: 538001709.

Date/timePositionNaut miles runAvg speedWind from/ knotsBaromVisibWave heightAir tempDewpointWater temp
2017-May-03 19:14N 01°59' E 102°13'515.5
2017-May-03 18:55N 01°56' E 102°17'715.3
2017-May-03 18:27N 01°53' E 102°24'715.1
2017-May-03 18:00N 01°50' E 102°30'815.4
2017-May-03 17:30N 01°47' E 102°37'5916.2
2017-May-03 13:50N 01°15' E 103°27'617.1
2017-May-03 13:30N 01°13' E 103°32'816.9
2017-May-03 13:00N 01°10' E 103°40'714.9
2017-May-03 12:30N 01°10' E 103°48'815.5
2017-May-03 12:01N 01°14' E 103°54'4 7.4
2017-May-03 11:30N 01°17' E 103°56'0 0.3
2017-May-03 11:00N 01°17' E 103°56'0 0.0
2017-May-03 10:12N 01°17' E 103°56'0 0.0
2017-May-03 09:54N 01°17' E 103°56'0 0.0
2017-May-03 09:09N 01°17' E 103°56'0 0.0
2017-May-03 08:57N 01°17' E 103°56'0 0.0
2017-May-03 08:24N 01°17' E 103°56'0 0.0
2017-May-03 07:54N 01°17' E 103°56'0 0.0
2017-May-03 07:30N 01°17' E 103°56'0 0.0
2017-May-03 06:48N 01°17' E 103°56'0 0.0
2017-May-03 06:30N 01°17' E 103°56'0 0.0
2017-May-03 05:57N 01°17' E 103°56'0 0.0
2017-May-03 05:27N 01°17' E 103°56'0 0.1
2017-May-03 05:00N 01°17' E 103°56'0 0.0
2017-May-03 04:09N 01°17' E 103°56'0 0.0
2017-May-03 03:57N 01°17' E 103°56'0 0.1
2017-May-03 03:30N 01°17' E 103°56'0 0.0
2017-May-03 02:48N 01°17' E 103°56'0 0.2
2017-May-03 02:27N 01°17' E 103°56'0 0.0
2017-May-03 01:57N 01°17' E 103°56'0 0.0
2017-May-03 01:30N 01°17' E 103°56'0 0.0
2017-May-03 00:57N 01°17' E 103°56'0 0.0
2017-May-03 00:30N 01°17' E 103°56'0 0.0
2017-May-03 00:00N 01°17' E 103°56'0 0.0
2017-May-02 23:18N 01°17' E 103°56'0 0.6
2017-May-02 23:00N 01°17' E 103°56'2 4.4
2017-May-02 22:30N 01°16' E 103°57'3 6.7
2017-May-02 22:00N 01°16' E 104°01'  
2017-Apr-25 14:52N 31°20' E 122°34'1 2.2
2017-Apr-25 14:25N 31°19' E 122°35'1 1.3
2017-Apr-25 13:30N 31°20' E 122°36'510.4
2017-Apr-25 13:00N 31°25' E 122°38'713.4
2017-Apr-25 12:30N 31°31' E 122°41'814.5
2017-Apr-25 11:59N 31°38' E 122°44'1015.2
2017-Apr-25 11:21N 31°47' E 122°49'616.3
2017-Apr-25 11:00N 31°51' E 122°54'816.3
2017-Apr-25 10:30N 31°56' E 123°01'916.8
2017-Apr-25 10:00N 32°02' E 123°09'816.7
2017-Apr-25 09:30N 32°07' E 123°16'  

Dump ship's entire track history